sensor_id;sensor_type;location;lat;lon;timestamp;temperature;humidity
12557;DHT22;6344;49.932;8.308;2023-03-14T00:01:43;10.20;99.90
12557;DHT22;6344;49.932;8.308;2023-03-14T00:04:10;10.20;99.90
12557;DHT22;6344;49.932;8.308;2023-03-14T00:06:38;10.10;99.90
12557;DHT22;6344;49.932;8.308;2023-03-14T00:09:04;10.10;99.90
12557;DHT22;6344;49.932;8.308;2023-03-14T00:11:31;10.10;99.90
12557;DHT22;6344;49.932;8.308;2023-03-14T00:13:58;10.10;99.90
12557;DHT22;6344;49.932;8.308;2023-03-14T00:16:25;10.10;99.90
12557;DHT22;6344;49.932;8.308;2023-03-14T00:18:52;10.20;99.90
12557;DHT22;6344;49.932;8.308;2023-03-14T00:21:19;10.20;99.90
12557;DHT22;6344;49.932;8.308;2023-03-14T00:23:47;10.30;99.90
12557;DHT22;6344;49.932;8.308;2023-03-14T00:26:15;10.50;99.90
12557;DHT22;6344;49.932;8.308;2023-03-14T00:28:43;10.50;99.90
12557;DHT22;6344;49.932;8.308;2023-03-14T00:31:12;10.60;99.90
12557;DHT22;6344;49.932;8.308;2023-03-14T00:33:39;10.50;99.90
12557;DHT22;6344;49.932;8.308;2023-03-14T00:36:08;10.60;99.90
12557;DHT22;6344;49.932;8.308;2023-03-14T00:38:37;10.60;99.90
12557;DHT22;6344;49.932;8.308;2023-03-14T00:41:07;10.60;99.90
12557;DHT22;6344;49.932;8.308;2023-03-14T00:43:33;10.50;99.90
12557;DHT22;6344;49.932;8.308;2023-03-14T00:46:00;10.50;99.90
12557;DHT22;6344;49.932;8.308;2023-03-14T00:48:27;10.50;99.90
12557;DHT22;6344;49.932;8.308;2023-03-14T00:50:54;10.50;99.90
12557;DHT22;6344;49.932;8.308;2023-03-14T00:53:21;10.40;99.90
12557;DHT22;6344;49.932;8.308;2023-03-14T00:55:48;10.40;99.90
12557;DHT22;6344;49.932;8.308;2023-03-14T00:58:17;10.40;99.90
12557;DHT22;6344;49.932;8.308;2023-03-14T01:00:44;10.40;99.90
12557;DHT22;6344;49.932;8.308;2023-03-14T01:03:11;10.40;99.90
12557;DHT22;6344;49.932;8.308;2023-03-14T01:05:38;10.40;99.90
12557;DHT22;6344;49.932;8.308;2023-03-14T01:08:07;10.30;99.90
12557;DHT22;6344;49.932;8.308;2023-03-14T01:10:34;10.30;99.90
12557;DHT22;6344;49.932;8.308;2023-03-14T01:13:00;10.30;99.90
12557;DHT22;6344;49.932;8.308;2023-03-14T01:15:28;10.50;99.90
12557;DHT22;6344;49.932;8.308;2023-03-14T01:17:55;10.40;99.90
12557;DHT22;6344;49.932;8.308;2023-03-14T01:20:22;10.50;99.90
12557;DHT22;6344;49.932;8.308;2023-03-14T01:22:48;10.40;99.90
12557;DHT22;6344;49.932;8.308;2023-03-14T01:25:16;10.50;99.90
12557;DHT22;6344;49.932;8.308;2023-03-14T01:27:44;10.40;99.90
12557;DHT22;6344;49.932;8.308;2023-03-14T01:30:12;10.50;99.90
12557;DHT22;6344;49.932;8.308;2023-03-14T01:36:12;10.60;99.90
12557;DHT22;6344;49.932;8.308;2023-03-14T01:38:39;10.60;99.90
12557;DHT22;6344;49.932;8.308;2023-03-14T01:41:07;10.60;99.90
12557;DHT22;6344;49.932;8.308;2023-03-14T01:43:34;10.60;99.90
12557;DHT22;6344;49.932;8.308;2023-03-14T01:46:24;10.60;99.90
12557;DHT22;6344;49.932;8.308;2023-03-14T01:48:59;10.70;99.90
12557;DHT22;6344;49.932;8.308;2023-03-14T01:51:34;10.70;99.90
12557;DHT22;6344;49.932;8.308;2023-03-14T01:54:10;10.70;99.90
12557;DHT22;6344;49.932;8.308;2023-03-14T01:56:39;10.70;99.90
12557;DHT22;6344;49.932;8.308;2023-03-14T01:59:09;10.70;99.90
12557;DHT22;6344;49.932;8.308;2023-03-14T02:01:36;10.60;99.90
12557;DHT22;6344;49.932;8.308;2023-03-14T02:04:05;10.70;99.90
12557;DHT22;6344;49.932;8.308;2023-03-14T02:06:40;10.70;99.90
12557;DHT22;6344;49.932;8.308;2023-03-14T02:09:08;10.70;99.90
12557;DHT22;6344;49.932;8.308;2023-03-14T02:11:35;10.70;99.90
12557;DHT22;6344;49.932;8.308;2023-03-14T02:14:02;10.70;99.90
12557;DHT22;6344;49.932;8.308;2023-03-14T02:16:30;10.60;99.90
12557;DHT22;6344;49.932;8.308;2023-03-14T02:18:57;10.70;99.90
12557;DHT22;6344;49.932;8.308;2023-03-14T02:21:29;10.60;99.90
12557;DHT22;6344;49.932;8.308;2023-03-14T02:24:05;10.60;99.90
12557;DHT22;6344;49.932;8.308;2023-03-14T02:26:36;10.60;99.90
12557;DHT22;6344;49.932;8.308;2023-03-14T02:29:06;10.50;99.90
12557;DHT22;6344;49.932;8.308;2023-03-14T02:31:33;10.50;99.90
12557;DHT22;6344;49.932;8.308;2023-03-14T02:34:01;10.40;99.90
12557;DHT22;6344;49.932;8.308;2023-03-14T02:36:28;10.40;99.90
12557;DHT22;6344;49.932;8.308;2023-03-14T02:39:03;10.40;99.90
12557;DHT22;6344;49.932;8.308;2023-03-14T02:41:33;10.30;99.90
12557;DHT22;6344;49.932;8.308;2023-03-14T02:44:00;10.30;99.90
12557;DHT22;6344;49.932;8.308;2023-03-14T02:46:28;10.30;99.90
12557;DHT22;6344;49.932;8.308;2023-03-14T02:48:58;10.30;99.90
12557;DHT22;6344;49.932;8.308;2023-03-14T02:51:28;10.50;99.90
12557;DHT22;6344;49.932;8.308;2023-03-14T02:53:56;10.40;99.90
12557;DHT22;6344;49.932;8.308;2023-03-14T02:56:22;10.40;99.90
12557;DHT22;6344;49.932;8.308;2023-03-14T02:58:49;10.40;99.90
12557;DHT22;6344;49.932;8.308;2023-03-14T03:01:16;10.30;99.90
12557;DHT22;6344;49.932;8.308;2023-03-14T03:03:44;10.40;99.90
12557;DHT22;6344;49.932;8.308;2023-03-14T03:06:11;10.40;99.90
12557;DHT22;6344;49.932;8.308;2023-03-14T03:08:38;10.40;99.90
12557;DHT22;6344;49.932;8.308;2023-03-14T03:11:05;10.30;99.90
12557;DHT22;6344;49.932;8.308;2023-03-14T03:13:31;10.30;99.90
12557;DHT22;6344;49.932;8.308;2023-03-14T03:15:58;10.30;99.90
12557;DHT22;6344;49.932;8.308;2023-03-14T03:18:25;10.30;99.90
12557;DHT22;6344;49.932;8.308;2023-03-14T03:20:53;10.30;99.90
12557;DHT22;6344;49.932;8.308;2023-03-14T03:23:19;10.30;99.90
12557;DHT22;6344;49.932;8.308;2023-03-14T03:25:50;10.30;99.90
12557;DHT22;6344;49.932;8.308;2023-03-14T03:28:17;10.30;99.90
12557;DHT22;6344;49.932;8.308;2023-03-14T03:30:44;10.40;99.90
12557;DHT22;6344;49.932;8.308;2023-03-14T03:33:11;10.40;99.90
12557;DHT22;6344;49.932;8.308;2023-03-14T03:35:43;10.50;99.90
12557;DHT22;6344;49.932;8.308;2023-03-14T03:38:11;10.50;99.90
12557;DHT22;6344;49.932;8.308;2023-03-14T03:40:38;10.50;99.90
12557;DHT22;6344;49.932;8.308;2023-03-14T03:43:05;10.50;99.90
12557;DHT22;6344;49.932;8.308;2023-03-14T03:45:31;10.50;99.90
12557;DHT22;6344;49.932;8.308;2023-03-14T03:47:58;10.50;99.90
12557;DHT22;6344;49.932;8.308;2023-03-14T03:50:24;10.50;99.90
12557;DHT22;6344;49.932;8.308;2023-03-14T03:52:51;10.50;99.90
12557;DHT22;6344;49.932;8.308;2023-03-14T03:55:19;10.50;99.90
12557;DHT22;6344;49.932;8.308;2023-03-14T03:57:46;10.50;99.90
12557;DHT22;6344;49.932;8.308;2023-03-14T04:00:13;10.50;99.90
12557;DHT22;6344;49.932;8.308;2023-03-14T04:02:39;10.50;99.90
12557;DHT22;6344;49.932;8.308;2023-03-14T04:05:06;10.50;99.90
12557;DHT22;6344;49.932;8.308;2023-03-14T04:07:33;10.50;99.90
12557;DHT22;6344;49.932;8.308;2023-03-14T04:10:00;10.50;99.90
12557;DHT22;6344;49.932;8.308;2023-03-14T04:12:28;10.60;99.90
12557;DHT22;6344;49.932;8.308;2023-03-14T04:14:54;10.70;99.90
12557;DHT22;6344;49.932;8.308;2023-03-14T04:17:21;10.60;99.90
12557;DHT22;6344;49.932;8.308;2023-03-14T04:19:48;10.70;99.90
12557;DHT22;6344;49.932;8.308;2023-03-14T04:22:16;10.60;99.90
12557;DHT22;6344;49.932;8.308;2023-03-14T04:24:43;10.60;99.90
12557;DHT22;6344;49.932;8.308;2023-03-14T04:27:09;10.60;99.90
12557;DHT22;6344;49.932;8.308;2023-03-14T04:29:37;10.60;99.90
12557;DHT22;6344;49.932;8.308;2023-03-14T04:32:04;10.50;99.90
12557;DHT22;6344;49.932;8.308;2023-03-14T04:34:31;10.50;99.90
12557;DHT22;6344;49.932;8.308;2023-03-14T04:36:57;10.50;99.90
12557;DHT22;6344;49.932;8.308;2023-03-14T04:39:24;10.60;99.90
12557;DHT22;6344;49.932;8.308;2023-03-14T04:41:51;10.50;99.90
12557;DHT22;6344;49.932;8.308;2023-03-14T04:44:17;10.50;99.90
12557;DHT22;6344;49.932;8.308;2023-03-14T04:46:45;10.40;99.90
12557;DHT22;6344;49.932;8.308;2023-03-14T04:49:12;10.40;99.90
12557;DHT22;6344;49.932;8.308;2023-03-14T04:51:39;10.40;99.90
12557;DHT22;6344;49.932;8.308;2023-03-14T04:54:07;10.40;99.90
12557;DHT22;6344;49.932;8.308;2023-03-14T04:56:33;10.40;99.90
12557;DHT22;6344;49.932;8.308;2023-03-14T04:59:00;10.40;99.90
12557;DHT22;6344;49.932;8.308;2023-03-14T05:01:26;10.40;99.90
12557;DHT22;6344;49.932;8.308;2023-03-14T05:03:54;10.40;99.90
12557;DHT22;6344;49.932;8.308;2023-03-14T05:06:21;10.40;99.90
12557;DHT22;6344;49.932;8.308;2023-03-14T05:08:47;10.30;99.90
12557;DHT22;6344;49.932;8.308;2023-03-14T05:11:14;10.30;99.90
12557;DHT22;6344;49.932;8.308;2023-03-14T05:13:41;10.20;99.90
12557;DHT22;6344;49.932;8.308;2023-03-14T05:16:09;10.30;99.90
12557;DHT22;6344;49.932;8.308;2023-03-14T05:18:36;10.30;99.90
12557;DHT22;6344;49.932;8.308;2023-03-14T05:21:05;10.30;99.90
12557;DHT22;6344;49.932;8.308;2023-03-14T05:23:32;10.30;99.90
12557;DHT22;6344;49.932;8.308;2023-03-14T05:25:58;10.40;99.90
12557;DHT22;6344;49.932;8.308;2023-03-14T05:28:25;10.30;99.90
12557;DHT22;6344;49.932;8.308;2023-03-14T05:30:52;10.30;99.90
12557;DHT22;6344;49.932;8.308;2023-03-14T05:33:18;10.30;99.90
12557;DHT22;6344;49.932;8.308;2023-03-14T05:35:45;10.30;99.90
12557;DHT22;6344;49.932;8.308;2023-03-14T05:38:13;10.40;99.90
12557;DHT22;6344;49.932;8.308;2023-03-14T05:40:39;10.40;99.90
12557;DHT22;6344;49.932;8.308;2023-03-14T05:43:06;10.40;99.90
12557;DHT22;6344;49.932;8.308;2023-03-14T05:45:34;10.40;99.90
12557;DHT22;6344;49.932;8.308;2023-03-14T05:48:01;10.50;99.90
12557;DHT22;6344;49.932;8.308;2023-03-14T05:50:28;10.40;99.90
12557;DHT22;6344;49.932;8.308;2023-03-14T05:52:54;10.40;99.90
12557;DHT22;6344;49.932;8.308;2023-03-14T05:55:22;10.40;99.90
12557;DHT22;6344;49.932;8.308;2023-03-14T05:57:49;10.40;99.90
12557;DHT22;6344;49.932;8.308;2023-03-14T06:00:16;10.40;99.90
12557;DHT22;6344;49.932;8.308;2023-03-14T06:02:43;10.30;99.90
12557;DHT22;6344;49.932;8.308;2023-03-14T06:05:10;10.30;99.90
12557;DHT22;6344;49.932;8.308;2023-03-14T06:07:36;10.30;99.90
12557;DHT22;6344;49.932;8.308;2023-03-14T06:10:04;10.30;99.90
12557;DHT22;6344;49.932;8.308;2023-03-14T06:12:32;10.30;99.90
12557;DHT22;6344;49.932;8.308;2023-03-14T06:14:59;10.30;99.90
12557;DHT22;6344;49.932;8.308;2023-03-14T06:17:25;10.30;99.90
12557;DHT22;6344;49.932;8.308;2023-03-14T06:19:52;10.30;99.90
12557;DHT22;6344;49.932;8.308;2023-03-14T06:22:19;10.40;99.90
12557;DHT22;6344;49.932;8.308;2023-03-14T06:24:45;10.40;99.90
12557;DHT22;6344;49.932;8.308;2023-03-14T06:27:12;10.40;99.90
12557;DHT22;6344;49.932;8.308;2023-03-14T06:29:40;10.40;99.90
12557;DHT22;6344;49.932;8.308;2023-03-14T06:32:06;10.50;99.90
12557;DHT22;6344;49.932;8.308;2023-03-14T06:34:33;10.50;99.90
12557;DHT22;6344;49.932;8.308;2023-03-14T06:37:00;10.50;99.90
12557;DHT22;6344;49.932;8.308;2023-03-14T06:39:26;10.50;99.90
12557;DHT22;6344;49.932;8.308;2023-03-14T06:41:53;10.50;99.90
12557;DHT22;6344;49.932;8.308;2023-03-14T06:44:19;10.50;99.90
12557;DHT22;6344;49.932;8.308;2023-03-14T06:46:48;10.60;99.90
12557;DHT22;6344;49.932;8.308;2023-03-14T06:49:14;10.50;99.90
12557;DHT22;6344;49.932;8.308;2023-03-14T06:51:41;10.50;99.90
12557;DHT22;6344;49.932;8.308;2023-03-14T06:54:07;10.60;99.90
12557;DHT22;6344;49.932;8.308;2023-03-14T06:56:34;10.60;99.90
12557;DHT22;6344;49.932;8.308;2023-03-14T06:59:01;10.60;99.90
12557;DHT22;6344;49.932;8.308;2023-03-14T07:01:29;10.70;99.90
12557;DHT22;6344;49.932;8.308;2023-03-14T07:03:59;10.70;99.90
12557;DHT22;6344;49.932;8.308;2023-03-14T07:06:25;10.80;99.90
12557;DHT22;6344;49.932;8.308;2023-03-14T07:08:54;10.80;99.90
12557;DHT22;6344;49.932;8.308;2023-03-14T07:11:21;10.90;99.90
12557;DHT22;6344;49.932;8.308;2023-03-14T07:13:48;10.90;99.90
12557;DHT22;6344;49.932;8.308;2023-03-14T07:16:15;11.00;99.90
12557;DHT22;6344;49.932;8.308;2023-03-14T07:18:41;10.90;99.90
12557;DHT22;6344;49.932;8.308;2023-03-14T07:21:09;10.80;99.90
12557;DHT22;6344;49.932;8.308;2023-03-14T07:23:36;10.80;99.90
12557;DHT22;6344;49.932;8.308;2023-03-14T07:26:03;10.80;99.90
12557;DHT22;6344;49.932;8.308;2023-03-14T07:28:29;10.80;99.90
12557;DHT22;6344;49.932;8.308;2023-03-14T07:30:56;10.80;99.90
12557;DHT22;6344;49.932;8.308;2023-03-14T07:33:23;10.80;99.90
12557;DHT22;6344;49.932;8.308;2023-03-14T07:35:50;10.80;99.90
12557;DHT22;6344;49.932;8.308;2023-03-14T07:38:18;10.80;99.90
12557;DHT22;6344;49.932;8.308;2023-03-14T07:40:44;10.90;99.90
12557;DHT22;6344;49.932;8.308;2023-03-14T07:43:11;11.00;99.90
12557;DHT22;6344;49.932;8.308;2023-03-14T07:45:38;11.00;99.90
12557;DHT22;6344;49.932;8.308;2023-03-14T07:48:04;11.00;99.90
12557;DHT22;6344;49.932;8.308;2023-03-14T07:50:31;11.10;99.90
12557;DHT22;6344;49.932;8.308;2023-03-14T07:52:57;11.10;99.90
12557;DHT22;6344;49.932;8.308;2023-03-14T07:55:26;11.10;99.90
12557;DHT22;6344;49.932;8.308;2023-03-14T07:57:52;11.00;99.90
12557;DHT22;6344;49.932;8.308;2023-03-14T08:00:20;11.10;99.90
12557;DHT22;6344;49.932;8.308;2023-03-14T08:02:46;11.00;99.90
12557;DHT22;6344;49.932;8.308;2023-03-14T08:05:13;11.10;99.90
12557;DHT22;6344;49.932;8.308;2023-03-14T08:07:40;11.30;99.90
12557;DHT22;6344;49.932;8.308;2023-03-14T08:10:08;11.40;99.90
12557;DHT22;6344;49.932;8.308;2023-03-14T08:12:36;11.40;99.90
12557;DHT22;6344;49.932;8.308;2023-03-14T08:15:03;11.50;99.90
12557;DHT22;6344;49.932;8.308;2023-03-14T08:17:30;11.60;99.90
12557;DHT22;6344;49.932;8.308;2023-03-14T08:19:57;11.50;99.90
12557;DHT22;6344;49.932;8.308;2023-03-14T08:22:23;11.40;99.90
12557;DHT22;6344;49.932;8.308;2023-03-14T08:24:50;11.30;99.90
12557;DHT22;6344;49.932;8.308;2023-03-14T08:27:16;11.40;99.90
12557;DHT22;6344;49.932;8.308;2023-03-14T08:29:44;11.50;99.90
12557;DHT22;6344;49.932;8.308;2023-03-14T08:32:11;11.70;99.90
12557;DHT22;6344;49.932;8.308;2023-03-14T08:34:37;12.00;99.90
12557;DHT22;6344;49.932;8.308;2023-03-14T08:37:05;12.20;99.90
12557;DHT22;6344;49.932;8.308;2023-03-14T08:39:31;12.30;99.90
12557;DHT22;6344;49.932;8.308;2023-03-14T08:41:58;12.20;99.90
12557;DHT22;6344;49.932;8.308;2023-03-14T08:44:25;11.90;99.90
12557;DHT22;6344;49.932;8.308;2023-03-14T08:46:52;11.90;99.90
12557;DHT22;6344;49.932;8.308;2023-03-14T08:49:19;12.60;99.90
12557;DHT22;6344;49.932;8.308;2023-03-14T08:51:46;13.40;58.30
12557;DHT22;6344;49.932;8.308;2023-03-14T08:54:12;13.10;78.30
12557;DHT22;6344;49.932;8.308;2023-03-14T08:56:39;13.10;70.70
12557;DHT22;6344;49.932;8.308;2023-03-14T08:59:06;13.20;73.90
12557;DHT22;6344;49.932;8.308;2023-03-14T09:01:33;13.70;35.60
12557;DHT22;6344;49.932;8.308;2023-03-14T09:04:01;13.60;27.30
12557;DHT22;6344;49.932;8.308;2023-03-14T09:06:28;13.10;60.40
12557;DHT22;6344;49.932;8.308;2023-03-14T09:08:54;13.10;87.50
12557;DHT22;6344;49.932;8.308;2023-03-14T09:11:21;12.70;99.90
12557;DHT22;6344;49.932;8.308;2023-03-14T09:13:48;12.50;99.90
12557;DHT22;6344;49.932;8.308;2023-03-14T09:16:15;12.60;99.90
12557;DHT22;6344;49.932;8.308;2023-03-14T09:18:41;12.50;99.90
12557;DHT22;6344;49.932;8.308;2023-03-14T09:21:10;12.60;99.90
12557;DHT22;6344;49.932;8.308;2023-03-14T09:23:36;12.60;99.90
12557;DHT22;6344;49.932;8.308;2023-03-14T09:26:03;12.50;99.90
12557;DHT22;6344;49.932;8.308;2023-03-14T09:28:30;12.60;99.90
12557;DHT22;6344;49.932;8.308;2023-03-14T09:30:57;12.60;99.90
12557;DHT22;6344;49.932;8.308;2023-03-14T09:33:24;12.60;99.90
12557;DHT22;6344;49.932;8.308;2023-03-14T09:35:50;12.50;99.90
12557;DHT22;6344;49.932;8.308;2023-03-14T09:38:18;12.50;99.90
12557;DHT22;6344;49.932;8.308;2023-03-14T09:40:46;12.60;99.90
12557;DHT22;6344;49.932;8.308;2023-03-14T09:43:14;12.80;95.80
12557;DHT22;6344;49.932;8.308;2023-03-14T09:45:44;12.90;67.40
12557;DHT22;6344;49.932;8.308;2023-03-14T09:48:14;13.00;96.60
12557;DHT22;6344;49.932;8.308;2023-03-14T09:50:44;13.00;77.10
12557;DHT22;6344;49.932;8.308;2023-03-14T09:53:14;13.30;73.40
12557;DHT22;6344;49.932;8.308;2023-03-14T09:55:43;13.70;59.60
12557;DHT22;6344;49.932;8.308;2023-03-14T09:58:13;13.60;30.70
12557;DHT22;6344;49.932;8.308;2023-03-14T10:00:40;13.60;36.30
12557;DHT22;6344;49.932;8.308;2023-03-14T10:03:21;13.40;32.20
12557;DHT22;6344;49.932;8.308;2023-03-14T10:05:49;13.60;68.20
12557;DHT22;6344;49.932;8.308;2023-03-14T10:08:16;13.70;48.80
12557;DHT22;6344;49.932;8.308;2023-03-14T10:10:43;13.70;20.20
12557;DHT22;6344;49.932;8.308;2023-03-14T10:13:15;13.50;51.10
12557;DHT22;6344;49.932;8.308;2023-03-14T10:15:47;13.40;69.70
12557;DHT22;6344;49.932;8.308;2023-03-14T10:18:15;13.40;56.40
12557;DHT22;6344;49.932;8.308;2023-03-14T10:20:44;13.10;84.40
12557;DHT22;6344;49.932;8.308;2023-03-14T10:23:24;13.10;78.00
12557;DHT22;6344;49.932;8.308;2023-03-14T10:26:05;12.80;99.90
12557;DHT22;6344;49.932;8.308;2023-03-14T10:28:34;12.50;99.90
12557;DHT22;6344;49.932;8.308;2023-03-14T10:31:03;12.40;99.90
12557;DHT22;6344;49.932;8.308;2023-03-14T10:33:32;12.40;99.90
12557;DHT22;6344;49.932;8.308;2023-03-14T10:36:00;12.40;99.90
12557;DHT22;6344;49.932;8.308;2023-03-14T10:38:29;12.30;99.90
12557;DHT22;6344;49.932;8.308;2023-03-14T10:40:56;12.40;99.90
12557;DHT22;6344;49.932;8.308;2023-03-14T10:43:26;12.60;99.90
12557;DHT22;6344;49.932;8.308;2023-03-14T10:45:55;12.60;99.90
12557;DHT22;6344;49.932;8.308;2023-03-14T10:48:30;12.70;99.90
12557;DHT22;6344;49.932;8.308;2023-03-14T10:51:02;12.70;99.90
12557;DHT22;6344;49.932;8.308;2023-03-14T10:53:33;12.60;99.90
12557;DHT22;6344;49.932;8.308;2023-03-14T10:56:02;12.70;99.90
12557;DHT22;6344;49.932;8.308;2023-03-14T10:58:33;12.70;99.90
12557;DHT22;6344;49.932;8.308;2023-03-14T11:01:09;12.80;99.90
12557;DHT22;6344;49.932;8.308;2023-03-14T11:03:42;12.80;99.90
12557;DHT22;6344;49.932;8.308;2023-03-14T11:06:12;12.90;99.90
12557;DHT22;6344;49.932;8.308;2023-03-14T11:08:45;12.60;99.90
12557;DHT22;6344;49.932;8.308;2023-03-14T11:11:19;12.60;99.90
12557;DHT22;6344;49.932;8.308;2023-03-14T11:13:57;12.40;99.90
12557;DHT22;6344;49.932;8.308;2023-03-14T11:16:31;12.50;99.90
12557;DHT22;6344;49.932;8.308;2023-03-14T11:21:57;12.50;99.90
12557;DHT22;6344;49.932;8.308;2023-03-14T11:24:45;12.70;99.90
12557;DHT22;6344;49.932;8.308;2023-03-14T11:27:18;12.70;99.90
12557;DHT22;6344;49.932;8.308;2023-03-14T11:29:59;12.90;99.90
12557;DHT22;6344;49.932;8.308;2023-03-14T11:32:39;13.10;99.90
12557;DHT22;6344;49.932;8.308;2023-03-14T11:35:17;12.90;99.90
12557;DHT22;6344;49.932;8.308;2023-03-14T11:37:47;12.80;99.90
12557;DHT22;6344;49.932;8.308;2023-03-14T11:42:49;12.40;99.90
12557;DHT22;6344;49.932;8.308;2023-03-14T11:45:20;12.10;99.90
12557;DHT22;6344;49.932;8.308;2023-03-14T11:47:53;11.80;99.90
12557;DHT22;6344;49.932;8.308;2023-03-14T11:50:24;11.50;99.90
12557;DHT22;6344;49.932;8.308;2023-03-14T11:52:54;11.50;99.90
12557;DHT22;6344;49.932;8.308;2023-03-14T11:55:25;11.60;99.90
12557;DHT22;6344;49.932;8.308;2023-03-14T11:57:58;11.40;35.10
12557;DHT22;6344;49.932;8.308;2023-03-14T12:00:27;11.20;32.90
12557;DHT22;6344;49.932;8.308;2023-03-14T12:03:00;11.20;54.80
12557;DHT22;6344;49.932;8.308;2023-03-14T12:05:55;11.30;1.00
12557;DHT22;6344;49.932;8.308;2023-03-14T12:08:46;11.30;16.90
12557;DHT22;6344;49.932;8.308;2023-03-14T12:11:18;11.60;1.00
12557;DHT22;6344;49.932;8.308;2023-03-14T12:13:47;11.50;1.00
12557;DHT22;6344;49.932;8.308;2023-03-14T12:16:37;11.50;1.00
12557;DHT22;6344;49.932;8.308;2023-03-14T12:19:14;11.60;1.00
12557;DHT22;6344;49.932;8.308;2023-03-14T12:21:48;11.80;1.00
12557;DHT22;6344;49.932;8.308;2023-03-14T12:24:21;12.00;1.00
12557;DHT22;6344;49.932;8.308;2023-03-14T12:26:53;12.20;1.00
12557;DHT22;6344;49.932;8.308;2023-03-14T12:29:20;11.80;1.00
12557;DHT22;6344;49.932;8.308;2023-03-14T12:31:49;11.80;1.00
12557;DHT22;6344;49.932;8.308;2023-03-14T12:34:28;11.80;1.00
12557;DHT22;6344;49.932;8.308;2023-03-14T12:37:00;11.70;1.00
12557;DHT22;6344;49.932;8.308;2023-03-14T12:39:40;11.60;1.00
12557;DHT22;6344;49.932;8.308;2023-03-14T12:42:11;11.50;1.00
12557;DHT22;6344;49.932;8.308;2023-03-14T12:44:40;11.40;1.00
12557;DHT22;6344;49.932;8.308;2023-03-14T12:50:18;11.30;1.00
12557;DHT22;6344;49.932;8.308;2023-03-14T12:52:59;11.20;1.00
12557;DHT22;6344;49.932;8.308;2023-03-14T12:55:33;11.00;1.00
12557;DHT22;6344;49.932;8.308;2023-03-14T12:58:07;10.70;1.00
12557;DHT22;6344;49.932;8.308;2023-03-14T13:00:39;10.60;1.00
12557;DHT22;6344;49.932;8.308;2023-03-14T13:03:17;10.60;1.00
12557;DHT22;6344;49.932;8.308;2023-03-14T13:06:04;10.60;1.00
12557;DHT22;6344;49.932;8.308;2023-03-14T13:08:37;10.50;1.00
12557;DHT22;6344;49.932;8.308;2023-03-14T13:11:08;10.10;13.70
12557;DHT22;6344;49.932;8.308;2023-03-14T13:13:37;9.70;47.20
12557;DHT22;6344;49.932;8.308;2023-03-14T13:16:12;9.40;99.90
12557;DHT22;6344;49.932;8.308;2023-03-14T13:18:42;9.40;99.90
12557;DHT22;6344;49.932;8.308;2023-03-14T13:21:14;9.60;99.90
12557;DHT22;6344;49.932;8.308;2023-03-14T13:23:55;9.80;99.90
12557;DHT22;6344;49.932;8.308;2023-03-14T13:26:24;10.40;63.10
12557;DHT22;6344;49.932;8.308;2023-03-14T13:28:51;10.50;51.30
12557;DHT22;6344;49.932;8.308;2023-03-14T13:31:22;10.60;1.00
12557;DHT22;6344;49.932;8.308;2023-03-14T13:33:59;10.40;1.00
12557;DHT22;6344;49.932;8.308;2023-03-14T13:36:28;10.30;1.00
12557;DHT22;6344;49.932;8.308;2023-03-14T13:38:56;10.50;1.00
12557;DHT22;6344;49.932;8.308;2023-03-14T13:41:24;10.40;1.00
12557;DHT22;6344;49.932;8.308;2023-03-14T13:43:50;10.20;1.00
12557;DHT22;6344;49.932;8.308;2023-03-14T13:46:20;9.80;1.00
12557;DHT22;6344;49.932;8.308;2023-03-14T13:48:49;10.10;1.00
12557;DHT22;6344;49.932;8.308;2023-03-14T13:51:18;10.20;1.00
12557;DHT22;6344;49.932;8.308;2023-03-14T13:53:49;10.80;1.00
12557;DHT22;6344;49.932;8.308;2023-03-14T13:56:17;10.80;1.00
12557;DHT22;6344;49.932;8.308;2023-03-14T13:58:44;11.10;1.00
12557;DHT22;6344;49.932;8.308;2023-03-14T14:01:14;11.50;1.00
12557;DHT22;6344;49.932;8.308;2023-03-14T14:03:44;11.40;1.00
12557;DHT22;6344;49.932;8.308;2023-03-14T14:06:23;11.50;1.00
12557;DHT22;6344;49.932;8.308;2023-03-14T14:08:53;11.60;1.00
12557;DHT22;6344;49.932;8.308;2023-03-14T14:11:33;11.40;1.00
12557;DHT22;6344;49.932;8.308;2023-03-14T14:14:02;11.30;1.00
12557;DHT22;6344;49.932;8.308;2023-03-14T14:16:29;12.00;1.00
12557;DHT22;6344;49.932;8.308;2023-03-14T14:18:57;12.40;1.00
12557;DHT22;6344;49.932;8.308;2023-03-14T14:21:25;12.70;1.00
12557;DHT22;6344;49.932;8.308;2023-03-14T14:23:54;12.70;1.00
12557;DHT22;6344;49.932;8.308;2023-03-14T14:26:20;12.20;1.00
12557;DHT22;6344;49.932;8.308;2023-03-14T14:28:58;11.40;1.00
12557;DHT22;6344;49.932;8.308;2023-03-14T14:31:25;10.60;1.00
12557;DHT22;6344;49.932;8.308;2023-03-14T14:33:56;10.30;1.00
12557;DHT22;6344;49.932;8.308;2023-03-14T14:36:26;10.10;1.00
12557;DHT22;6344;49.932;8.308;2023-03-14T14:38:58;10.00;1.00
12557;DHT22;6344;49.932;8.308;2023-03-14T14:41:31;10.00;1.00
12557;DHT22;6344;49.932;8.308;2023-03-14T14:43:59;10.00;1.00
12557;DHT22;6344;49.932;8.308;2023-03-14T14:46:28;10.50;1.00
12557;DHT22;6344;49.932;8.308;2023-03-14T14:48:57;10.80;1.00
12557;DHT22;6344;49.932;8.308;2023-03-14T14:51:27;10.60;1.00
12557;DHT22;6344;49.932;8.308;2023-03-14T14:54:05;11.00;1.00
12557;DHT22;6344;49.932;8.308;2023-03-14T14:56:37;11.70;1.00
12557;DHT22;6344;49.932;8.308;2023-03-14T14:59:05;12.30;1.00
12557;DHT22;6344;49.932;8.308;2023-03-14T15:01:34;12.30;1.00
12557;DHT22;6344;49.932;8.308;2023-03-14T15:04:01;11.90;1.00
12557;DHT22;6344;49.932;8.308;2023-03-14T15:06:29;11.20;1.00
12557;DHT22;6344;49.932;8.308;2023-03-14T15:08:57;10.80;1.00
12557;DHT22;6344;49.932;8.308;2023-03-14T15:11:26;10.40;1.00
12557;DHT22;6344;49.932;8.308;2023-03-14T15:13:53;10.20;1.00
12557;DHT22;6344;49.932;8.308;2023-03-14T15:16:22;10.10;1.00
12557;DHT22;6344;49.932;8.308;2023-03-14T15:18:53;10.10;1.00
12557;DHT22;6344;49.932;8.308;2023-03-14T15:21:20;10.00;1.00
12557;DHT22;6344;49.932;8.308;2023-03-14T15:23:47;10.00;1.00
12557;DHT22;6344;49.932;8.308;2023-03-14T15:26:16;10.20;1.00
12557;DHT22;6344;49.932;8.308;2023-03-14T15:28:44;10.20;1.00
12557;DHT22;6344;49.932;8.308;2023-03-14T15:31:13;9.90;1.00
12557;DHT22;6344;49.932;8.308;2023-03-14T15:33:41;9.80;1.00
12557;DHT22;6344;49.932;8.308;2023-03-14T15:36:19;9.60;1.00
12557;DHT22;6344;49.932;8.308;2023-03-14T15:38:47;9.50;1.00
12557;DHT22;6344;49.932;8.308;2023-03-14T15:41:13;9.30;1.00
12557;DHT22;6344;49.932;8.308;2023-03-14T15:43:40;9.20;1.00
12557;DHT22;6344;49.932;8.308;2023-03-14T15:46:10;9.20;1.00
12557;DHT22;6344;49.932;8.308;2023-03-14T15:48:37;9.20;1.00
12557;DHT22;6344;49.932;8.308;2023-03-14T15:51:04;9.30;1.00
12557;DHT22;6344;49.932;8.308;2023-03-14T15:53:31;9.30;1.00
12557;DHT22;6344;49.932;8.308;2023-03-14T15:55:58;9.20;1.00
12557;DHT22;6344;49.932;8.308;2023-03-14T15:58:24;9.20;1.00
12557;DHT22;6344;49.932;8.308;2023-03-14T16:00:51;9.10;1.00
12557;DHT22;6344;49.932;8.308;2023-03-14T16:03:19;9.10;1.00
12557;DHT22;6344;49.932;8.308;2023-03-14T16:05:46;9.00;1.00
12557;DHT22;6344;49.932;8.308;2023-03-14T16:08:13;9.00;1.00
12557;DHT22;6344;49.932;8.308;2023-03-14T16:10:40;9.00;1.00
12557;DHT22;6344;49.932;8.308;2023-03-14T16:13:07;8.90;1.00